createdAt,value
2022-12-23T00:01:46.638Z,100339.00
2022-12-23T00:04:13.287Z,100336.00
2022-12-23T00:06:39.891Z,100334.13
2022-12-23T00:09:06.400Z,100344.94
2022-12-23T00:11:32.945Z,100346.84
2022-12-23T00:14:21.660Z,100354.13
2022-12-23T00:16:50.364Z,100350.91
2022-12-23T00:19:17.046Z,100355.75
2022-12-23T00:21:43.513Z,100350.34
2022-12-23T00:24:11.762Z,100355.22
2022-12-23T00:26:39.441Z,100358.47
2022-12-23T00:29:05.976Z,100365.25
2022-12-23T00:31:32.568Z,100369.03
2022-12-23T00:33:59.192Z,100364.16
2022-12-23T00:36:28.838Z,100357.94
2022-12-23T00:39:17.746Z,100366.06
2022-12-23T00:42:03.159Z,100349.00
2022-12-23T00:44:29.778Z,100355.47
2022-12-23T00:46:56.256Z,100362.25
2022-12-23T00:49:41.411Z,100362.78
2022-12-23T00:52:10.998Z,100369.00
2022-12-23T00:54:37.621Z,100372.56
2022-12-23T00:57:04.206Z,100369.84
2022-12-23T00:59:30.757Z,100367.94
2022-12-23T01:02:15.914Z,100373.34
2022-12-23T01:05:01.256Z,100367.66
2022-12-23T01:07:27.919Z,100369.84
2022-12-23T01:09:54.450Z,100383.38
2022-12-23T01:12:21.165Z,100372.56
2022-12-23T01:14:47.950Z,100375.25
2022-12-23T01:17:14.955Z,100380.91
2022-12-23T01:19:41.672Z,100388.50
2022-12-23T01:22:09.566Z,100387.69
2022-12-23T01:24:36.260Z,100385.78
2022-12-23T01:27:02.817Z,100396.91
2022-12-23T01:29:29.885Z,100395.25
2022-12-23T01:31:56.419Z,100405.81
2022-12-23T01:34:22.936Z,100406.63
2022-12-23T01:36:49.461Z,100407.72
2022-12-23T01:39:15.968Z,100411.25
2022-12-23T01:42:00.748Z,100413.94
2022-12-23T01:44:54.300Z,100416.91
2022-12-23T01:47:26.961Z,100419.34
2022-12-23T01:49:59.402Z,100425.81
2022-12-23T01:52:26.448Z,100427.47
2022-12-23T01:54:54.332Z,100433.94
2022-12-23T01:57:21.343Z,100439.34
2022-12-23T02:00:06.710Z,100443.69
2022-12-23T02:02:54.620Z,100438.28
2022-12-23T02:05:23.802Z,100451.00
2022-12-23T02:08:10.902Z,100455.59
2022-12-23T02:10:46.817Z,100449.91
2022-12-23T02:13:27.974Z,100454.53
2022-12-23T02:16:18.947Z,100457.22
2022-12-23T02:18:50.308Z,100461.00
2022-12-23T02:21:42.039Z,100476.16
2022-12-23T02:24:26.766Z,100480.78
2022-12-23T02:26:53.332Z,100488.03
2022-12-23T02:29:45.638Z,100489.13
2022-12-23T02:32:20.413Z,100489.69
2022-12-23T02:35:01.350Z,100491.59
2022-12-23T02:37:33.656Z,100505.38
2022-12-23T02:40:15.543Z,100494.53
2022-12-23T02:42:50.241Z,100488.03
2022-12-23T02:45:27.819Z,100491.03
2022-12-23T02:48:02.048Z,100491.84
2022-12-23T02:50:32.246Z,100491.03
2022-12-23T02:53:03.911Z,100492.66
2022-12-23T02:55:35.656Z,100484.53
2022-12-23T02:58:06.494Z,100482.63
2022-12-23T03:00:33.839Z,100484.53
2022-12-23T03:03:00.480Z,100482.38
2022-12-23T03:05:39.117Z,100492.41
2022-12-23T03:08:12.273Z,100489.94
2022-12-23T03:10:59.122Z,100497.00
2022-12-23T03:13:47.161Z,100505.13
2022-12-23T03:16:43.002Z,100505.94
2022-12-23T03:19:15.208Z,100494.31
2022-12-23T03:22:10.971Z,100497.81
2022-12-23T03:24:50.191Z,100497.81
2022-12-23T03:27:27.454Z,100497.81
2022-12-23T03:29:53.928Z,100498.88
2022-12-23T03:32:23.118Z,100487.22
2022-12-23T03:34:53.829Z,100488.31
2022-12-23T03:37:21.535Z,100488.31
2022-12-23T03:40:27.847Z,100489.13
2022-12-23T03:43:02.306Z,100489.94
2022-12-23T03:45:41.737Z,100498.88
2022-12-23T03:48:27.765Z,100498.88
2022-12-23T03:50:59.980Z,100509.69
2022-12-23T03:53:38.792Z,100515.38
2022-12-23T03:56:10.328Z,100517.81
2022-12-23T03:58:39.809Z,100513.22
2022-12-23T04:01:26.164Z,100517.56
2022-12-23T04:04:20.647Z,100520.25
2022-12-23T04:06:53.630Z,100524.88
2022-12-23T04:09:23.070Z,100517.81
2022-12-23T04:11:50.355Z,100522.41
2022-12-23T04:14:21.882Z,100525.13
2022-12-23T04:16:53.155Z,100532.41
2022-12-23T04:19:19.709Z,100537.59
2022-12-23T04:21:46.192Z,100545.94
2022-12-23T04:24:12.640Z,100533.22
2022-12-23T04:26:39.142Z,100529.72
2022-12-23T04:29:05.610Z,100531.59
2022-12-23T04:31:32.320Z,100514.28
2022-12-23T04:33:58.893Z,100521.59
2022-12-23T04:36:25.399Z,100512.66
2022-12-23T04:38:51.906Z,100514.28
2022-12-23T04:41:18.412Z,100508.63
2022-12-23T04:43:49.283Z,100507.25
2022-12-23T04:46:19.414Z,100503.75
2022-12-23T04:48:45.927Z,100508.06
2022-12-23T04:51:12.694Z,100509.97
2022-12-23T04:53:39.297Z,100505.66
2022-12-23T04:56:05.912Z,100513.75
2022-12-23T04:58:32.389Z,100505.38
2022-12-23T05:01:10.009Z,100513.47
2022-12-23T05:03:37.803Z,100519.97
2022-12-23T05:06:05.000Z,100524.31
2022-12-23T05:08:32.158Z,100526.19
2022-12-23T05:10:58.764Z,100525.13
2022-12-23T05:13:25.361Z,100536.22
2022-12-23T05:15:53.588Z,100542.44
2022-12-23T05:18:21.532Z,100544.88
2022-12-23T05:20:48.697Z,100560.28
2022-12-23T05:23:15.201Z,100545.13
2022-12-23T05:25:41.671Z,100556.78
2022-12-23T05:28:09.463Z,100552.44
2022-12-23T05:30:36.394Z,100552.16
2022-12-23T05:33:03.128Z,100548.94
2022-12-23T05:35:29.727Z,100549.75
2022-12-23T05:37:57.680Z,100560.56
2022-12-23T05:40:27.251Z,100539.44
2022-12-23T05:42:57.021Z,100527.28
2022-12-23T05:45:23.514Z,100526.19
2022-12-23T05:47:50.094Z,100531.88
2022-12-23T05:50:16.743Z,100520.78
2022-12-23T05:52:43.222Z,100508.34
2022-12-23T05:55:09.966Z,100507.53
2022-12-23T05:57:36.480Z,100497.53
2022-12-23T06:00:04.666Z,100505.13
2022-12-23T06:02:31.357Z,100499.44
2022-12-23T06:04:58.115Z,100503.75
2022-12-23T06:07:24.631Z,100502.69
2022-12-23T06:09:51.103Z,100487.53
2022-12-23T06:12:17.860Z,100504.56
2022-12-23T06:14:44.366Z,100499.44
2022-12-23T06:17:10.902Z,100505.13
2022-12-23T06:19:37.484Z,100513.22
2022-12-23T06:22:03.981Z,100519.47
2022-12-23T06:24:30.538Z,100514.84
2022-12-23T06:26:57.668Z,100529.47
2022-12-23T06:29:25.102Z,100523.22
2022-12-23T06:31:51.968Z,100525.91
2022-12-23T06:34:18.636Z,100525.13
2022-12-23T06:36:45.127Z,100527.81
2022-12-23T06:39:11.889Z,100532.97
2022-12-23T06:41:38.408Z,100532.19
2022-12-23T06:44:05.617Z,100531.34
2022-12-23T06:46:32.261Z,100527.56
2022-12-23T06:48:59.049Z,100537.84
2022-12-23T06:51:25.718Z,100533.22
2022-12-23T06:53:52.199Z,100541.34
2022-12-23T06:56:18.820Z,100541.63
2022-12-23T06:58:45.421Z,100559.47
2022-12-23T07:01:12.106Z,100555.97
2022-12-23T07:03:38.730Z,100551.34
2022-12-23T07:06:05.544Z,100548.66
2022-12-23T07:08:32.057Z,100548.66
2022-12-23T07:11:03.343Z,100539.72
2022-12-23T07:13:31.022Z,100522.69
2022-12-23T07:15:57.596Z,100530.00
2022-12-23T07:18:25.168Z,100519.69
2022-12-23T07:20:52.284Z,100530.00
2022-12-23T07:23:18.930Z,100530.81
2022-12-23T07:25:45.447Z,100538.94
2022-12-23T07:28:11.909Z,100536.22
2022-12-23T07:30:38.506Z,100541.63
2022-12-23T07:33:05.844Z,100544.63
2022-12-23T07:35:32.373Z,100531.09
2022-12-23T07:37:59.578Z,100537.31
2022-12-23T07:40:26.620Z,100521.88
2022-12-23T07:42:59.090Z,100522.97
2022-12-23T07:45:26.943Z,100516.75
2022-12-23T07:47:59.320Z,100514.03
2022-12-23T07:50:26.920Z,100518.38
2022-12-23T07:52:54.371Z,100517.56
2022-12-23T07:55:21.616Z,100500.53
2022-12-23T07:57:49.805Z,100498.06
2022-12-23T08:00:16.577Z,100506.75
2022-12-23T08:02:43.625Z,100482.63
2022-12-23T08:05:10.997Z,100499.72
2022-12-23T08:07:37.614Z,100497.81
2022-12-23T08:10:05.369Z,100492.66
2022-12-23T08:12:32.266Z,100493.47
2022-12-23T08:14:59.090Z,100488.88
2022-12-23T08:17:30.152Z,100503.47
2022-12-23T08:19:57.089Z,100486.72
2022-12-23T08:22:24.149Z,100476.97
2022-12-23T08:24:50.833Z,100472.91
2022-12-23T08:27:17.350Z,100468.31
2022-12-23T08:29:43.967Z,100465.34
2022-12-23T08:32:10.805Z,100466.41
2022-12-23T08:34:37.343Z,100474.53
2022-12-23T08:37:03.850Z,100470.19
2022-12-23T08:39:30.360Z,100454.53
2022-12-23T08:41:56.896Z,100455.34
2022-12-23T08:44:27.182Z,100460.75
2022-12-23T08:46:54.672Z,100451.81
2022-12-23T08:49:21.458Z,100449.91
2022-12-23T08:51:48.231Z,100454.78
2022-12-23T08:54:14.846Z,100463.69
2022-12-23T08:56:42.927Z,100453.72
2022-12-23T08:59:18.687Z,100438.28
2022-12-23T09:01:46.250Z,100442.06
2022-12-23T09:04:12.808Z,100431.22
2022-12-23T09:06:41.567Z,100428.81
2022-12-23T09:09:10.096Z,100424.19
2022-12-23T09:11:37.565Z,100436.91
2022-12-23T09:14:05.555Z,100433.41
2022-12-23T09:16:32.654Z,100429.63
2022-12-23T09:18:59.369Z,100417.97
2022-12-23T09:21:26.237Z,100413.13
2022-12-23T09:23:53.119Z,100418.25
2022-12-23T09:26:28.265Z,100407.72
2022-12-23T09:28:55.441Z,100407.72
2022-12-23T09:31:22.974Z,100407.16
2022-12-23T09:33:53.415Z,100387.94
2022-12-23T09:36:21.513Z,100393.63
2022-12-23T09:38:53.325Z,100390.66
2022-12-23T09:41:42.789Z,100384.44
2022-12-23T09:44:30.507Z,100392.53
2022-12-23T09:47:02.257Z,100398.78
2022-12-23T09:49:28.966Z,100397.16
2022-12-23T09:52:03.091Z,100376.59
2022-12-23T09:54:45.883Z,100382.81
2022-12-23T09:57:45.627Z,100371.19
2022-12-23T10:00:18.217Z,100380.91
2022-12-23T10:03:00.351Z,100377.41
2022-12-23T10:06:18.196Z,100366.59
2022-12-23T10:08:48.034Z,100370.38
2022-12-23T10:11:26.281Z,100356.03
2022-12-23T10:14:01.943Z,100354.16
2022-12-23T10:16:41.240Z,100356.03
2022-12-23T10:19:41.624Z,100351.16
2022-12-23T10:22:13.933Z,100357.66
2022-12-23T10:24:45.776Z,100355.75
2022-12-23T10:27:35.683Z,100358.47
2022-12-23T10:30:42.559Z,100339.53
2022-12-23T10:33:21.987Z,100334.13
2022-12-23T10:35:48.588Z,100340.34
2022-12-23T10:38:21.172Z,100334.13
2022-12-23T10:41:15.264Z,100330.59
2022-12-23T10:44:10.067Z,100328.44
2022-12-23T10:47:00.400Z,100341.16
2022-12-23T10:50:03.010Z,100342.22
2022-12-23T10:52:34.743Z,100327.63
2022-12-23T10:55:01.265Z,100320.59
2022-12-23T10:57:30.154Z,100320.06
2022-12-23T10:59:57.464Z,100303.56
2022-12-23T11:02:26.798Z,100301.66
2022-12-23T11:04:53.474Z,100288.13
2022-12-23T11:07:44.283Z,100273.00
2022-12-23T11:10:20.780Z,100252.16
2022-12-23T11:12:53.445Z,100252.16
2022-12-23T11:15:32.897Z,100241.63
2022-12-23T11:18:12.789Z,100228.63
2022-12-23T11:20:42.544Z,100233.75
2022-12-23T11:23:33.218Z,100219.69
2022-12-23T11:26:13.002Z,100214.81
2022-12-23T11:28:49.008Z,100212.13
2022-12-23T11:31:17.245Z,100201.53
2022-12-23T11:33:55.866Z,100193.16
2022-12-23T11:36:25.881Z,100190.44
2022-12-23T11:38:52.471Z,100179.63
2022-12-23T11:41:25.691Z,100190.19
2022-12-23T11:44:20.069Z,100191.28
2022-12-23T11:46:47.051Z,100177.47
2022-12-23T11:49:17.898Z,100182.09
2022-12-23T11:51:48.025Z,100155.28
2022-12-23T11:54:21.583Z,100139.88
2022-12-23T11:56:51.552Z,100132.03
2022-12-23T11:59:40.005Z,100120.94
2022-12-23T12:02:27.937Z,100115.00
2022-12-23T12:05:06.013Z,100107.69
2022-12-23T12:07:33.623Z,100113.09
2022-12-23T12:10:01.718Z,100109.28
2022-12-23T12:12:29.792Z,100091.47
2022-12-23T12:15:00.398Z,100086.84
2022-12-23T12:17:52.041Z,100077.13
2022-12-23T12:20:31.209Z,100070.63
2022-12-23T12:23:03.135Z,100069.00
2022-12-23T12:25:50.846Z,100059.28
2022-12-23T12:28:37.113Z,100053.88
2022-12-23T12:31:17.249Z,100051.97
2022-12-23T12:33:56.010Z,100048.16
2022-12-23T12:36:47.018Z,100047.38
2022-12-23T12:39:21.470Z,100050.06
2022-12-23T12:42:05.792Z,100039.50
2022-12-23T12:44:54.308Z,100037.59
2022-12-23T12:47:53.844Z,100032.75
2022-12-23T12:50:39.338Z,100007.03
2022-12-23T12:53:18.772Z,100019.75
2022-12-23T12:55:51.171Z,100019.75
2022-12-23T12:58:22.890Z,100034.91
2022-12-23T13:01:03.937Z,100036.00
2022-12-23T13:03:59.744Z,99994.63
2022-12-23T13:07:22.490Z,99960.25
2022-12-23T13:10:33.498Z,99957.25
2022-12-23T13:13:09.338Z,99962.97
2022-12-23T13:15:50.219Z,99964.06
2022-12-23T13:18:20.628Z,99961.34
2022-12-23T13:21:23.247Z,99971.06
2022-12-23T13:24:03.817Z,99969.47
2022-12-23T13:26:52.940Z,99974.03
2022-12-23T13:29:58.223Z,99974.31
2022-12-23T13:32:50.266Z,99963.50
2022-12-23T13:35:27.502Z,99949.97
2022-12-23T13:38:12.856Z,99935.38
2022-12-23T13:41:01.384Z,99928.06
2022-12-23T13:43:47.549Z,99941.31
2022-12-23T13:46:34.337Z,99940.50
2022-12-23T13:49:30.616Z,99928.06
2022-12-23T13:52:12.377Z,99937.81
2022-12-23T13:55:12.862Z,99919.13
2022-12-23T13:57:51.848Z,99914.81
2022-12-23T14:00:19.042Z,99912.91
2022-12-23T14:03:14.822Z,99918.88
2022-12-23T14:05:45.125Z,99913.47
2022-12-23T14:08:34.974Z,99895.59
2022-12-23T14:11:31.989Z,99916.44
2022-12-23T14:14:01.501Z,99925.34
2022-12-23T14:16:33.738Z,99919.13
2022-12-23T14:19:18.568Z,99928.88
2022-12-23T14:22:21.479Z,99933.47
2022-12-23T14:25:26.876Z,99929.16
2022-12-23T14:28:24.496Z,99909.94
2022-12-23T14:30:51.127Z,99909.41
2022-12-23T14:33:30.242Z,99912.91
2022-12-23T14:36:14.203Z,99916.44
2022-12-23T14:38:41.695Z,99908.84
2022-12-23T14:41:36.400Z,99896.44
2022-12-23T14:44:03.511Z,99902.91
2022-12-23T14:46:35.931Z,99915.06
2022-12-23T14:49:36.844Z,99921.56
2022-12-23T14:51:51.082Z,99915.34
2022-12-23T14:54:36.421Z,99907.25
2022-12-23T14:57:15.468Z,99905.59
2022-12-23T15:00:02.846Z,99919.13
2022-12-23T15:02:36.931Z,99915.34
2022-12-23T15:05:04.530Z,99913.72
2022-12-23T15:07:35.126Z,99918.31
2022-12-23T15:10:03.620Z,99916.16
2022-12-23T15:12:32.458Z,99919.13
2022-12-23T15:15:02.043Z,99929.94
2022-12-23T15:17:34.614Z,99917.53
2022-12-23T15:20:20.859Z,99925.34
2022-12-23T15:22:48.572Z,99929.94
2022-12-23T15:25:33.820Z,99917.53
2022-12-23T15:28:02.949Z,99919.94
2022-12-23T15:30:35.333Z,99924.53
2022-12-23T15:33:06.432Z,99936.47
2022-12-23T15:35:43.022Z,99928.88
2022-12-23T15:38:14.582Z,99934.28
2022-12-23T15:40:41.205Z,99947.00
2022-12-23T15:43:23.849Z,99947.81
2022-12-23T15:45:51.265Z,99953.22
2022-12-23T15:48:32.357Z,99963.22
2022-12-23T15:51:13.662Z,99960.50
2022-12-23T15:53:43.970Z,99970.53
2022-12-23T15:56:20.173Z,99969.47
2022-12-23T15:58:47.431Z,99975.94
2022-12-23T16:01:20.158Z,99975.94
2022-12-23T16:03:55.724Z,99967.81
2022-12-23T16:06:29.765Z,99974.03
2022-12-23T16:09:05.830Z,99975.13
2022-12-23T16:11:42.308Z,99980.28
2022-12-23T16:14:31.058Z,99984.06
2022-12-23T16:17:12.388Z,99974.31
2022-12-23T16:19:41.870Z,99975.13
2022-12-23T16:22:20.496Z,99986.75
2022-12-23T16:24:50.765Z,99987.06
2022-12-23T16:27:19.822Z,99998.16
2022-12-23T16:29:48.691Z,99990.56
2022-12-23T16:32:16.938Z,99994.06
2022-12-23T16:34:49.344Z,100011.09
2022-12-23T16:37:16.132Z,100014.09
2022-12-23T16:39:42.839Z,100012.19
2022-12-23T16:42:09.437Z,100022.72
2022-12-23T16:44:35.927Z,100021.13
2022-12-23T16:47:07.496Z,100028.97
2022-12-23T16:49:36.204Z,100018.41
2022-12-23T16:52:07.112Z,100030.03
2022-12-23T16:54:33.718Z,100028.13
2022-12-23T16:57:00.302Z,100032.75
2022-12-23T16:59:27.005Z,100042.22
2022-12-23T17:01:58.113Z,100037.09
2022-12-23T17:04:29.705Z,100043.56
2022-12-23T17:06:56.199Z,100041.97
2022-12-23T17:09:22.944Z,100033.03
2022-12-23T17:11:53.509Z,100040.06
2022-12-23T17:14:25.683Z,100050.88
2022-12-23T17:16:52.861Z,100043.56
2022-12-23T17:19:27.744Z,100057.91
2022-12-23T17:21:59.905Z,100046.28
2022-12-23T17:24:27.544Z,100050.88
2022-12-23T17:26:55.315Z,100044.66
2022-12-23T17:29:22.101Z,100045.75
2022-12-23T17:31:50.090Z,100057.38
2022-12-23T17:34:19.361Z,100060.88
2022-12-23T17:36:50.339Z,100060.38
2022-12-23T17:39:17.754Z,100056.56
2022-12-23T17:41:44.487Z,100066.31
2022-12-23T17:44:15.016Z,100075.22
2022-12-23T17:46:41.992Z,100071.16
2022-12-23T17:49:08.910Z,100066.00
2022-12-23T17:51:35.532Z,100076.03
2022-12-23T17:54:02.233Z,100070.63
2022-12-23T17:56:28.941Z,100074.41
2022-12-23T17:58:55.493Z,100074.97
2022-12-23T18:01:30.778Z,100073.31
2022-12-23T18:03:59.557Z,100073.31
2022-12-23T18:06:28.288Z,100073.31
2022-12-23T18:08:57.347Z,100079.81
2022-12-23T18:11:41.993Z,100084.94
2022-12-23T18:14:16.487Z,100087.13
2022-12-23T18:16:43.060Z,100096.06
2022-12-23T18:19:18.203Z,100094.97
2022-12-23T18:21:45.187Z,100097.66
2022-12-23T18:24:11.698Z,100098.47
2022-12-23T18:26:38.338Z,100099.84
2022-12-23T18:29:04.850Z,100104.19
2022-12-23T18:31:31.585Z,100095.25
2022-12-23T18:33:59.692Z,100098.25
2022-12-23T18:36:29.423Z,100100.66
2022-12-23T18:38:57.206Z,100096.06
2022-12-23T18:41:24.834Z,100115.81
2022-12-23T18:43:51.780Z,100124.72
2022-12-23T18:46:20.203Z,100138.00
2022-12-23T18:48:47.014Z,100124.72
2022-12-23T18:51:18.239Z,100135.53
2022-12-23T18:53:45.746Z,100125.81
2022-12-23T18:56:14.165Z,100132.84
2022-12-23T18:58:40.743Z,100132.84
2022-12-23T19:01:12.341Z,100133.66
2022-12-23T19:03:39.012Z,100139.06
2022-12-23T19:06:07.023Z,100136.34
2022-12-23T19:08:35.591Z,100144.75
2022-12-23T19:11:08.614Z,100149.06
2022-12-23T19:13:35.172Z,100147.47
2022-12-23T19:16:02.032Z,100149.06
2022-12-23T19:18:28.660Z,100150.97
2022-12-23T19:20:55.134Z,100157.19
2022-12-23T19:23:21.653Z,100148.00
2022-12-23T19:25:55.024Z,100154.47
2022-12-23T19:28:23.950Z,100176.41
2022-12-23T19:30:50.720Z,100184.53
2022-12-23T19:33:17.702Z,100178.81
2022-12-23T19:35:44.543Z,100179.91
2022-12-23T19:38:12.342Z,100189.13
2022-12-23T19:40:40.007Z,100192.34
2022-12-23T19:43:06.753Z,100202.13
2022-12-23T19:45:33.291Z,100196.69
2022-12-23T19:47:59.804Z,100204.25
2022-12-23T19:50:27.272Z,100199.94
2022-12-23T19:52:54.903Z,100217.78
2022-12-23T19:55:21.466Z,100241.34
2022-12-23T19:57:47.979Z,100226.72
2022-12-23T20:00:15.971Z,100223.19
2022-12-23T20:02:42.662Z,100242.69
2022-12-23T20:05:10.210Z,100244.03
2022-12-23T20:07:37.284Z,100251.06
2022-12-23T20:10:05.036Z,100257.56
2022-12-23T20:12:31.712Z,100262.16
2022-12-23T20:14:58.321Z,100262.16
2022-12-23T20:17:24.852Z,100275.69
2022-12-23T20:19:51.734Z,100283.81
2022-12-23T20:22:18.314Z,100277.59
2022-12-23T20:24:44.829Z,100269.47
2022-12-23T20:27:13.281Z,100283.81
2022-12-23T20:29:42.189Z,100292.72
2022-12-23T20:32:08.832Z,100296.25
2022-12-23T20:34:39.459Z,100306.53
2022-12-23T20:37:06.803Z,100307.59
2022-12-23T20:39:33.401Z,100300.56
2022-12-23T20:42:00.013Z,100298.41
2022-12-23T20:44:35.724Z,100315.19
2022-12-23T20:47:03.585Z,100317.34
2022-12-23T20:49:30.239Z,100315.75
2022-12-23T20:51:56.884Z,100330.06
2022-12-23T20:54:28.117Z,100333.59
2022-12-23T20:56:58.721Z,100340.09
2022-12-23T20:59:25.340Z,100344.41
2022-12-23T21:01:52.261Z,100355.22
2022-12-23T21:04:19.106Z,100366.06
2022-12-23T21:06:45.838Z,100366.06
2022-12-23T21:09:14.608Z,100367.94
2022-12-23T21:11:43.695Z,100377.97
2022-12-23T21:14:11.357Z,100384.44
2022-12-23T21:16:38.846Z,100376.06
2022-12-23T21:19:14.079Z,100381.72
2022-12-23T21:21:40.619Z,100377.97
2022-12-23T21:24:07.253Z,100390.66
2022-12-23T21:26:34.689Z,100388.78
2022-12-23T21:29:04.102Z,100397.97
2022-12-23T21:31:33.328Z,100395.81
2022-12-23T21:34:00.362Z,100406.06
2022-12-23T21:36:30.991Z,100401.75
2022-12-23T21:38:58.567Z,100408.78
2022-12-23T21:41:30.303Z,100413.94
2022-12-23T21:43:59.324Z,100418.25
2022-12-23T21:46:27.854Z,100420.41
2022-12-23T21:48:56.453Z,100435.84
2022-12-23T21:51:35.013Z,100423.97
2022-12-23T21:54:05.595Z,100431.22
2022-12-23T21:56:32.626Z,100435.84
2022-12-23T21:59:04.470Z,100430.41
2022-12-23T22:01:31.681Z,100436.66
2022-12-23T22:03:58.899Z,100434.78
2022-12-23T22:06:31.900Z,100433.94
2022-12-23T22:08:59.427Z,100437.47
2022-12-23T22:11:29.137Z,100441.25
2022-12-23T22:13:57.232Z,100454.78
2022-12-23T22:16:26.329Z,100465.59
2022-12-23T22:18:53.819Z,100460.19
2022-12-23T22:21:22.549Z,100482.63
2022-12-23T22:23:50.806Z,100472.09
2022-12-23T22:26:25.120Z,100490.75
2022-12-23T22:28:54.645Z,100477.50
2022-12-23T22:31:36.560Z,100483.72
2022-12-23T22:34:03.490Z,100488.31
2022-12-23T22:36:30.712Z,100491.84
2022-12-23T22:38:58.877Z,100508.06
2022-12-23T22:41:27.999Z,100500.75
2022-12-23T22:43:55.232Z,100500.75
2022-12-23T22:46:22.769Z,100508.88
2022-12-23T22:48:49.731Z,100509.97
2022-12-23T22:51:21.612Z,100502.66
2022-12-23T22:53:48.283Z,100496.72
2022-12-23T22:56:17.679Z,100501.03
2022-12-23T22:58:44.222Z,100501.03
2022-12-23T23:01:22.420Z,100513.47
2022-12-23T23:03:56.853Z,100517.00
2022-12-23T23:06:37.681Z,100512.66
2022-12-23T23:09:06.540Z,100527.81
2022-12-23T23:11:33.071Z,100528.91
2022-12-23T23:13:59.736Z,100531.88
2022-12-23T23:16:26.916Z,100531.88
2022-12-23T23:18:54.404Z,100540.53
2022-12-23T23:21:21.849Z,100544.88
2022-12-23T23:23:49.802Z,100553.81
2022-12-23T23:26:17.154Z,100554.63
2022-12-23T23:28:43.781Z,100556.53
2022-12-23T23:33:57.984Z,100556.78
2022-12-23T23:36:25.052Z,100568.41
2022-12-23T23:38:51.587Z,100582.75
2022-12-23T23:41:22.903Z,100584.94
2022-12-23T23:43:51.221Z,100573.28
2022-12-23T23:46:17.877Z,100576.81
2022-12-23T23:48:44.491Z,100580.88
2022-12-23T23:51:12.447Z,100582.75
2022-12-23T23:53:39.002Z,100597.91
2022-12-23T23:56:07.297Z,100587.34
2022-12-23T23:58:35.275Z,100580.03
